Vera — CQER — position and weather

sailwx.info

Track history (hours):
 
Tides and Currents Weather Stations Pressure Air Temp Water Temp Dewpoint Dewpoint Depression Visibility Wind Speed Wind Dir Waves Ship Positions

Vera

Last reported at 2017-Oct-23 04:11 UTC. Time now 2017-Nov-24 14:50 UTC.
Position S 32°41' W 071°43'.
Warning: this ship's position is 32 days out of date.

Length 131 m; draft 5 m.

Type: Cargo ship. MMSI: 255805695.

Date/timePositionNaut miles runAvg speedWind from/ knotsBaromVisibWave heightAir tempDewpointWater temp
2017-Oct-23 04:11S 32°41' W 071°43'212.4
2017-Oct-23 03:59S 32°44' W 071°42'612.4
2017-Oct-23 03:30S 32°49' W 071°40'612.1
2017-Oct-23 03:00S 32°55' W 071°38'7 1.3
2017-Oct-22 21:20S 33°02' W 071°38'0 0.0
2017-Oct-22 20:59S 33°02' W 071°38'0 0.0
2017-Oct-22 20:02S 33°02' W 071°38'0 0.0
2017-Oct-22 19:52S 33°02' W 071°38'0 0.0
2017-Oct-22 18:44S 33°02' W 071°38'0 0.0
2017-Oct-22 18:25S 33°02' W 071°38'0 0.0
2017-Oct-22 17:07S 33°02' W 071°38'0 0.0
2017-Oct-22 14:25S 33°02' W 071°38'0 0.0
2017-Oct-22 13:18S 33°02' W 071°38'0 0.0
2017-Oct-22 12:54S 33°02' W 071°38'0 0.0
2017-Oct-22 11:59S 33°02' W 071°38'0 0.0
2017-Oct-22 11:29S 33°02' W 071°38'0 0.0
2017-Oct-22 10:52S 33°02' W 071°38'0 0.0
2017-Oct-21 23:02S 33°02' W 071°38'0 0.0
2017-Oct-21 22:56S 33°02' W 071°38'0 0.0
2017-Oct-21 22:25S 33°02' W 071°38'0 0.0
2017-Oct-21 21:48S 33°02' W 071°38'0 0.0
2017-Oct-21 21:29S 33°02' W 071°38'0 0.0
2017-Oct-21 20:17S 33°02' W 071°38'0 0.0
2017-Oct-21 19:40S 33°02' W 071°38'0 0.0
2017-Oct-21 19:26S 33°02' W 071°38'0 0.0
2017-Oct-21 18:55S 33°02' W 071°38'0 0.0
2017-Oct-21 18:27S 33°02' W 071°38'0 0.0
2017-Oct-21 17:42S 33°02' W 071°38'0 0.0
2017-Oct-21 17:24S 33°02' W 071°38'0 0.0
2017-Oct-21 17:00S 33°02' W 071°38'0 0.0
2017-Oct-21 16:24S 33°02' W 071°38'0 0.0
2017-Oct-21 15:54S 33°02' W 071°38'0 0.0
2017-Oct-21 15:27S 33°02' W 071°38'1 1.1
2017-Oct-21 15:00S 33°02' W 071°37'3 6.2
2017-Oct-21 14:29S 32°59' W 071°38'10 9.9
2017-Oct-21 13:30S 32°49' W 071°40'6 9.6
2017-Oct-21 12:55S 32°44' W 071°41'4 9.3
2017-Oct-21 12:28S 32°40' W 071°40'  
Track history (hours):
 
Tides and Currents Weather Stations Pressure Air Temp Water Temp Dewpoint Dewpoint Depression Visibility Wind Speed Wind Dir Waves Ship Positions

Vera

Last reported at 2017-Oct-23 04:11 UTC. Time now 2017-Nov-24 14:50 UTC.
Position S 32°41' W 071°43'.
Warning: this ship's position is 32 days out of date.

Length 131 m; draft 5 m.

Type: Cargo ship. MMSI: 255805695.

Date/timePositionNaut miles runAvg speedWind from/ knotsBaromVisibWave heightAir tempDewpointWater temp
2017-Oct-23 04:11S 32°41' W 071°43'212.4
2017-Oct-23 03:59S 32°44' W 071°42'612.4
2017-Oct-23 03:30S 32°49' W 071°40'612.1
2017-Oct-23 03:00S 32°55' W 071°38'7 1.3
2017-Oct-22 21:20S 33°02' W 071°38'0 0.0
2017-Oct-22 20:59S 33°02' W 071°38'0 0.0
2017-Oct-22 20:02S 33°02' W 071°38'0 0.0
2017-Oct-22 19:52S 33°02' W 071°38'0 0.0
2017-Oct-22 18:44S 33°02' W 071°38'0 0.0
2017-Oct-22 18:25S 33°02' W 071°38'0 0.0
2017-Oct-22 17:07S 33°02' W 071°38'0 0.0
2017-Oct-22 14:25S 33°02' W 071°38'0 0.0
2017-Oct-22 13:18S 33°02' W 071°38'0 0.0
2017-Oct-22 12:54S 33°02' W 071°38'0 0.0
2017-Oct-22 11:59S 33°02' W 071°38'0 0.0
2017-Oct-22 11:29S 33°02' W 071°38'0 0.0
2017-Oct-22 10:52S 33°02' W 071°38'0 0.0
2017-Oct-21 23:02S 33°02' W 071°38'0 0.0
2017-Oct-21 22:56S 33°02' W 071°38'0 0.0
2017-Oct-21 22:25S 33°02' W 071°38'0 0.0
2017-Oct-21 21:48S 33°02' W 071°38'0 0.0
2017-Oct-21 21:29S 33°02' W 071°38'0 0.0
2017-Oct-21 20:17S 33°02' W 071°38'0 0.0
2017-Oct-21 19:40S 33°02' W 071°38'0 0.0
2017-Oct-21 19:26S 33°02' W 071°38'0 0.0
2017-Oct-21 18:55S 33°02' W 071°38'0 0.0
2017-Oct-21 18:27S 33°02' W 071°38'0 0.0
2017-Oct-21 17:42S 33°02' W 071°38'0 0.0
2017-Oct-21 17:24S 33°02' W 071°38'0 0.0
2017-Oct-21 17:00S 33°02' W 071°38'0 0.0
2017-Oct-21 16:24S 33°02' W 071°38'0 0.0
2017-Oct-21 15:54S 33°02' W 071°38'0 0.0
2017-Oct-21 15:27S 33°02' W 071°38'1 1.1
2017-Oct-21 15:00S 33°02' W 071°37'3 6.2
2017-Oct-21 14:29S 32°59' W 071°38'10 9.9
2017-Oct-21 13:30S 32°49' W 071°40'6 9.6
2017-Oct-21 12:55S 32°44' W 071°41'4 9.3
2017-Oct-21 12:28S 32°40' W 071°40'  

Dump ship's entire track history